createdAt,value
2023-05-19T00:00:39.079Z,56.75
2023-05-19T00:02:44.010Z,56.89
2023-05-19T00:04:48.181Z,56.73
2023-05-19T00:06:52.207Z,56.90
2023-05-19T00:08:59.018Z,56.97
2023-05-19T00:11:02.644Z,57.01
2023-05-19T00:13:06.077Z,57.03
2023-05-19T00:15:11.880Z,56.90
2023-05-19T00:17:17.004Z,56.72
2023-05-19T00:19:20.059Z,56.95
2023-05-19T00:21:23.020Z,56.97
2023-05-19T00:23:26.024Z,56.88
2023-05-19T00:25:28.927Z,56.90
2023-05-19T00:27:31.823Z,56.85
2023-05-19T00:29:34.945Z,56.66
2023-05-19T00:31:39.128Z,56.88
2023-05-19T00:33:42.143Z,56.91
2023-05-19T00:35:45.025Z,56.89
2023-05-19T00:37:48.747Z,56.92
2023-05-19T00:39:51.501Z,56.75
2023-05-19T00:41:54.398Z,56.85
2023-05-19T00:43:57.229Z,56.86
2023-05-19T00:46:00.094Z,56.70
2023-05-19T00:48:04.461Z,56.69
2023-05-19T00:50:08.175Z,56.98
2023-05-19T00:52:11.136Z,56.89
2023-05-19T00:54:14.025Z,57.07
2023-05-19T00:56:17.874Z,56.96
2023-05-19T00:58:20.880Z,56.76
2023-05-19T01:00:24.482Z,56.89
2023-05-19T01:02:29.679Z,57.03
2023-05-19T01:04:37.287Z,57.04
2023-05-19T01:06:40.235Z,56.92
2023-05-19T01:08:43.017Z,57.04
2023-05-19T01:10:45.775Z,56.82
2023-05-19T01:12:49.415Z,56.72
2023-05-19T01:14:52.419Z,57.01
2023-05-19T01:17:05.361Z,56.72
2023-05-19T01:19:25.594Z,56.95
2023-05-19T01:22:00.943Z,56.87
2023-05-19T01:24:15.188Z,56.96
2023-05-19T01:26:46.283Z,57.01
2023-05-19T01:29:24.792Z,57.11
2023-05-19T01:31:29.561Z,57.17
2023-05-19T01:33:34.044Z,57.26
2023-05-19T01:35:38.720Z,57.24
2023-05-19T01:37:43.499Z,56.97
2023-05-19T01:39:47.429Z,57.15
2023-05-19T01:41:51.920Z,57.12
2023-05-19T01:43:54.930Z,56.92
2023-05-19T01:45:59.105Z,56.92
2023-05-19T01:48:06.336Z,56.96
2023-05-19T01:50:11.171Z,56.87
2023-05-19T01:52:14.076Z,57.15
2023-05-19T01:54:16.886Z,57.11
2023-05-19T01:56:30.033Z,57.08
2023-05-19T01:58:42.960Z,56.96
2023-05-19T02:00:54.212Z,57.14
2023-05-19T02:03:07.426Z,56.93
2023-05-19T02:05:18.400Z,56.91
2023-05-19T02:07:32.445Z,57.05
2023-05-19T02:09:40.775Z,57.22
2023-05-19T02:11:53.166Z,57.06
2023-05-19T02:13:58.209Z,56.90
2023-05-19T02:16:06.404Z,56.80
2023-05-19T02:18:11.571Z,56.88
2023-05-19T02:20:14.839Z,56.94
2023-05-19T02:22:17.704Z,56.86
2023-05-19T02:24:22.952Z,56.82
2023-05-19T02:26:26.114Z,56.92
2023-05-19T02:28:28.933Z,56.90
2023-05-19T02:30:32.767Z,57.18
2023-05-19T02:32:36.383Z,57.08
2023-05-19T02:34:42.163Z,57.12
2023-05-19T02:36:45.389Z,57.00
2023-05-19T02:38:48.217Z,56.89
2023-05-19T02:40:52.580Z,57.16
2023-05-19T02:42:55.618Z,56.97
2023-05-19T02:44:58.458Z,57.10
2023-05-19T02:47:01.674Z,57.22
2023-05-19T02:49:04.477Z,57.38
2023-05-19T02:51:08.589Z,57.38
2023-05-19T02:53:11.457Z,57.05
2023-05-19T02:55:17.157Z,57.11
2023-05-19T02:57:21.408Z,57.21
2023-05-19T02:59:25.733Z,57.21
2023-05-19T03:01:27.813Z,57.31
2023-05-19T03:03:31.059Z,57.34
2023-05-19T03:05:33.954Z,57.01
2023-05-19T03:07:38.332Z,57.02
2023-05-19T03:09:41.360Z,56.96
2023-05-19T03:11:44.156Z,57.21
2023-05-19T03:13:47.021Z,56.93
2023-05-19T03:15:51.031Z,57.12
2023-05-19T03:17:54.146Z,56.96
2023-05-19T03:19:57.236Z,56.79
2023-05-19T03:22:00.067Z,56.86
2023-05-19T03:24:04.528Z,56.99
2023-05-19T03:26:07.400Z,56.69
2023-05-19T03:28:10.248Z,56.81
2023-05-19T03:30:14.375Z,56.92
2023-05-19T03:32:17.465Z,56.83
2023-05-19T03:34:22.320Z,56.77
2023-05-19T03:36:26.179Z,56.79
2023-05-19T03:38:28.970Z,57.00
2023-05-19T03:40:33.350Z,56.88
2023-05-19T03:42:36.322Z,56.83
2023-05-19T03:44:39.273Z,56.78
2023-05-19T03:46:42.191Z,56.75
2023-05-19T03:48:45.046Z,56.64
2023-05-19T03:50:48.593Z,56.89
2023-05-19T03:52:51.474Z,56.90
2023-05-19T03:54:54.477Z,56.61
2023-05-19T03:56:59.195Z,56.72
2023-05-19T03:59:01.979Z,56.73
2023-05-19T04:01:04.855Z,56.45
2023-05-19T04:03:08.245Z,56.50
2023-05-19T04:05:11.637Z,56.50
2023-05-19T04:07:14.502Z,56.56
2023-05-19T04:09:17.756Z,56.17
2023-05-19T04:11:21.480Z,56.26
2023-05-19T04:13:25.666Z,56.13
2023-05-19T04:15:30.148Z,56.36
2023-05-19T04:17:33.117Z,55.98
2023-05-19T04:19:35.962Z,56.15
2023-05-19T04:21:38.969Z,56.23
2023-05-19T04:23:41.771Z,55.96
2023-05-19T04:25:44.727Z,56.18
2023-05-19T04:27:48.558Z,56.18
2023-05-19T04:29:52.921Z,56.10
2023-05-19T04:31:55.865Z,55.98
2023-05-19T04:33:58.816Z,56.06
2023-05-19T04:36:08.475Z,56.00
2023-05-19T04:38:12.054Z,56.03
2023-05-19T04:40:15.763Z,55.95
2023-05-19T04:42:19.324Z,56.08
2023-05-19T04:44:22.235Z,56.01
2023-05-19T04:46:29.713Z,56.09
2023-05-19T04:48:35.806Z,56.12
2023-05-19T04:50:42.087Z,56.21
2023-05-19T04:52:45.836Z,56.40
2023-05-19T04:54:48.771Z,56.10
2023-05-19T04:56:51.562Z,56.39
2023-05-19T04:58:54.888Z,56.54
2023-05-19T05:00:57.775Z,56.69
2023-05-19T05:03:05.180Z,56.40
2023-05-19T05:05:09.521Z,56.44
2023-05-19T05:07:12.618Z,56.47
2023-05-19T05:09:15.583Z,56.62
2023-05-19T05:11:19.089Z,56.83
2023-05-19T05:13:23.753Z,56.90
2023-05-19T05:15:28.826Z,56.54
2023-05-19T05:17:32.463Z,56.58
2023-05-19T05:19:37.401Z,56.49
2023-05-19T05:21:41.486Z,56.77
2023-05-19T05:23:45.022Z,56.70
2023-05-19T05:25:48.808Z,56.77
2023-05-19T05:27:51.821Z,56.77
2023-05-19T05:29:56.053Z,56.56
2023-05-19T05:32:01.718Z,56.71
2023-05-19T05:34:04.636Z,56.50
2023-05-19T05:36:11.213Z,56.42
2023-05-19T05:38:14.087Z,56.43
2023-05-19T05:40:17.245Z,56.51
2023-05-19T05:42:20.327Z,56.31
2023-05-19T05:44:23.137Z,56.31
2023-05-19T05:46:25.906Z,56.30
2023-05-19T05:48:29.652Z,56.24
2023-05-19T05:50:33.337Z,56.24
2023-05-19T05:52:38.620Z,56.07
2023-05-19T05:54:42.071Z,56.03
2023-05-19T05:56:45.808Z,56.10
2023-05-19T05:58:49.447Z,55.87
2023-05-19T06:00:57.620Z,55.89
2023-05-19T06:03:00.666Z,55.76
2023-05-19T06:05:03.628Z,55.61
2023-05-19T06:07:06.529Z,55.91
2023-05-19T06:09:10.727Z,55.46
2023-05-19T06:11:13.598Z,55.41
2023-05-19T06:13:22.324Z,55.34
2023-05-19T06:15:25.392Z,55.23
2023-05-19T06:17:28.240Z,55.57
2023-05-19T06:19:31.774Z,55.30
2023-05-19T06:21:34.654Z,55.04
2023-05-19T06:23:37.850Z,55.12
2023-05-19T06:25:42.190Z,55.03
2023-05-19T06:27:45.055Z,54.95
2023-05-19T06:29:47.839Z,54.95
2023-05-19T06:31:50.729Z,54.78
2023-05-19T06:33:53.702Z,55.04
2023-05-19T06:35:56.797Z,54.50
2023-05-19T06:37:59.887Z,54.62
2023-05-19T06:40:02.764Z,54.32
2023-05-19T06:42:07.187Z,54.37
2023-05-19T06:44:10.188Z,54.32
2023-05-19T06:46:13.200Z,54.35
2023-05-19T06:48:16.279Z,54.28
2023-05-19T06:50:19.623Z,54.18
2023-05-19T06:52:22.649Z,54.21
2023-05-19T06:54:25.489Z,54.17
2023-05-19T06:56:28.566Z,54.10
2023-05-19T06:58:33.168Z,54.02
2023-05-19T07:00:36.140Z,53.99
2023-05-19T07:02:39.282Z,53.92
2023-05-19T07:04:42.935Z,53.94
2023-05-19T07:06:45.725Z,53.89
2023-05-19T07:08:48.757Z,53.79
2023-05-19T07:10:52.082Z,53.83
2023-05-19T07:12:54.905Z,53.83
2023-05-19T07:14:59.329Z,53.54
2023-05-19T07:17:02.096Z,53.59
2023-05-19T07:19:05.027Z,53.63
2023-05-19T07:21:08.521Z,53.63
2023-05-19T07:23:11.443Z,53.42
2023-05-19T07:25:14.315Z,53.34
2023-05-19T07:27:17.417Z,53.30
2023-05-19T07:29:20.333Z,53.38
2023-05-19T07:31:24.543Z,53.54
2023-05-19T07:33:27.837Z,53.47
2023-05-19T07:35:30.850Z,53.23
2023-05-19T07:37:33.814Z,53.22
2023-05-19T07:39:36.998Z,53.42
2023-05-19T07:41:39.829Z,53.29
2023-05-19T07:43:43.671Z,53.30
2023-05-19T07:45:46.598Z,53.07
2023-05-19T07:47:51.095Z,53.29
2023-05-19T07:49:53.986Z,53.23
2023-05-19T07:51:57.066Z,53.24
2023-05-19T07:53:59.855Z,53.34
2023-05-19T07:56:02.618Z,53.05
2023-05-19T07:58:05.506Z,53.06
2023-05-19T08:00:11.851Z,52.88
2023-05-19T08:02:14.853Z,53.03
2023-05-19T08:04:19.246Z,53.00
2023-05-19T08:06:22.450Z,52.93
2023-05-19T08:08:25.325Z,53.08
2023-05-19T08:10:28.154Z,52.99
2023-05-19T08:12:31.326Z,52.99
2023-05-19T08:14:34.897Z,52.81
2023-05-19T08:16:37.777Z,52.87
2023-05-19T08:18:40.581Z,52.94
2023-05-19T08:20:46.264Z,52.87
2023-05-19T08:22:49.209Z,52.78
2023-05-19T08:24:52.149Z,52.71
2023-05-19T08:26:56.328Z,52.68
2023-05-19T08:28:59.209Z,52.77
2023-05-19T08:31:02.116Z,52.73
2023-05-19T08:33:05.166Z,52.64
2023-05-19T08:35:09.062Z,52.56
2023-05-19T08:37:13.339Z,52.53
2023-05-19T08:39:17.540Z,52.53
2023-05-19T08:41:21.639Z,52.39
2023-05-19T08:43:24.477Z,52.31
2023-05-19T08:45:28.167Z,52.38
2023-05-19T08:47:31.329Z,52.35
2023-05-19T08:49:41.501Z,52.34
2023-05-19T08:51:55.505Z,52.09
2023-05-19T08:54:05.655Z,52.09
2023-05-19T08:56:12.865Z,52.06
2023-05-19T08:58:20.278Z,52.01
2023-05-19T09:00:24.422Z,51.93
2023-05-19T09:02:28.481Z,51.75
2023-05-19T09:04:32.061Z,51.86
2023-05-19T09:06:34.912Z,51.92
2023-05-19T09:08:38.107Z,51.89
2023-05-19T09:10:42.202Z,51.98
2023-05-19T09:12:47.665Z,51.86
2023-05-19T09:14:50.477Z,51.93
2023-05-19T09:16:53.356Z,51.90
2023-05-19T09:18:57.154Z,51.82
2023-05-19T09:21:02.397Z,51.87
2023-05-19T09:23:05.592Z,51.73
2023-05-19T09:25:19.101Z,51.90
2023-05-19T09:27:24.428Z,51.79
2023-05-19T09:29:27.212Z,51.80
2023-05-19T09:31:33.668Z,51.66
2023-05-19T09:33:37.698Z,51.74
2023-05-19T09:35:40.564Z,51.68
2023-05-19T09:37:43.753Z,51.82
2023-05-19T09:39:49.250Z,52.03
2023-05-19T09:41:52.814Z,51.85
2023-05-19T09:43:57.413Z,51.81
2023-05-19T09:46:05.857Z,51.79
2023-05-19T09:48:09.026Z,51.75
2023-05-19T09:50:14.695Z,51.86
2023-05-19T09:52:18.188Z,51.72
2023-05-19T09:54:23.026Z,51.65
2023-05-19T09:56:26.598Z,51.78
2023-05-19T09:58:34.633Z,51.66
2023-05-19T10:00:39.679Z,51.52
2023-05-19T10:02:45.031Z,51.29
2023-05-19T10:04:49.318Z,51.53
2023-05-19T10:06:54.367Z,51.24
2023-05-19T10:08:57.487Z,51.25
2023-05-19T10:11:01.195Z,51.40
2023-05-19T10:13:05.058Z,51.31
2023-05-19T10:15:11.390Z,51.24
2023-05-19T10:17:15.978Z,51.20
2023-05-19T10:19:22.728Z,51.04
2023-05-19T10:21:25.776Z,51.14
2023-05-19T10:23:28.748Z,51.14
2023-05-19T10:25:33.385Z,51.13
2023-05-19T10:27:40.120Z,50.99
2023-05-19T10:29:50.061Z,51.05
2023-05-19T10:31:55.338Z,50.92
2023-05-19T10:34:15.165Z,51.04
2023-05-19T10:36:35.403Z,51.24
2023-05-19T10:38:44.028Z,51.04
2023-05-19T10:40:58.610Z,51.02
2023-05-19T10:43:16.832Z,51.03
2023-05-19T10:45:23.834Z,51.02
2023-05-19T10:47:27.194Z,50.93
2023-05-19T10:49:36.143Z,50.98
2023-05-19T10:51:39.095Z,50.98
2023-05-19T10:53:46.616Z,51.15
2023-05-19T10:55:53.603Z,50.72
2023-05-19T10:57:57.706Z,50.65
2023-05-19T11:00:01.335Z,50.67
2023-05-19T11:02:08.481Z,50.86
2023-05-19T11:04:12.367Z,50.83
2023-05-19T11:06:26.210Z,50.63
2023-05-19T11:08:33.597Z,50.60
2023-05-19T11:10:36.200Z,50.60
2023-05-19T11:12:44.228Z,50.61
2023-05-19T11:14:47.216Z,50.46
2023-05-19T11:16:51.401Z,50.34
2023-05-19T11:18:55.545Z,50.45
2023-05-19T11:21:02.276Z,50.15
2023-05-19T11:23:11.279Z,50.33
2023-05-19T11:25:14.244Z,50.36
2023-05-19T11:27:23.870Z,50.33
2023-05-19T11:29:26.696Z,50.28
2023-05-19T11:31:31.191Z,50.16
2023-05-19T11:33:34.741Z,50.02
2023-05-19T11:35:38.023Z,50.08
2023-05-19T11:37:42.783Z,50.05
2023-05-19T11:39:48.246Z,50.12
2023-05-19T11:41:52.389Z,49.94
2023-05-19T11:43:55.218Z,50.02
2023-05-19T11:45:58.113Z,50.09
2023-05-19T11:48:03.100Z,50.16
2023-05-19T11:50:06.782Z,50.03
2023-05-19T11:52:09.859Z,50.10
2023-05-19T11:54:13.445Z,49.85
2023-05-19T11:56:17.649Z,50.09
2023-05-19T11:58:27.122Z,49.99
2023-05-19T12:00:31.317Z,49.91
2023-05-19T12:02:34.404Z,49.93
2023-05-19T12:04:37.502Z,49.88
2023-05-19T12:06:40.441Z,49.74
2023-05-19T12:08:44.156Z,49.88
2023-05-19T12:10:50.357Z,49.79
2023-05-19T12:12:55.139Z,49.69
2023-05-19T12:14:58.334Z,49.69
2023-05-19T12:17:11.255Z,49.81
2023-05-19T12:19:14.381Z,49.67
2023-05-19T12:21:17.417Z,49.80
2023-05-19T12:23:20.620Z,49.55
2023-05-19T12:25:24.350Z,49.73
2023-05-19T12:27:29.067Z,49.55
2023-05-19T12:29:34.559Z,49.59
2023-05-19T12:31:37.996Z,49.38
2023-05-19T12:33:41.061Z,49.59
2023-05-19T12:35:44.505Z,49.54
2023-05-19T12:37:49.098Z,49.53
2023-05-19T12:39:52.069Z,49.42
2023-05-19T12:42:01.855Z,49.42
2023-05-19T12:44:15.830Z,49.54
2023-05-19T12:46:20.544Z,49.57
2023-05-19T12:48:23.958Z,49.30
2023-05-19T12:50:31.503Z,49.50
2023-05-19T12:52:38.010Z,49.40
2023-05-19T12:54:40.974Z,49.24
2023-05-19T12:56:51.332Z,49.35
2023-05-19T12:58:55.830Z,49.35
2023-05-19T13:01:01.111Z,49.27
2023-05-19T13:03:07.109Z,49.18
2023-05-19T13:05:10.272Z,48.72
2023-05-19T13:07:13.567Z,48.43
2023-05-19T13:09:17.282Z,48.31
2023-05-19T13:11:20.117Z,48.38
2023-05-19T13:13:22.949Z,48.07
2023-05-19T13:15:27.066Z,47.90
2023-05-19T13:17:30.011Z,47.42
2023-05-19T13:19:34.226Z,47.26
2023-05-19T13:21:37.034Z,47.17
2023-05-19T13:23:39.960Z,46.90
2023-05-19T13:25:43.509Z,46.64
2023-05-19T13:27:47.174Z,46.67
2023-05-19T13:29:50.049Z,46.30
2023-05-19T13:31:52.877Z,46.42
2023-05-19T13:33:55.654Z,46.40
2023-05-19T13:36:00.014Z,45.99
2023-05-19T13:38:04.224Z,46.04
2023-05-19T13:40:08.113Z,46.10
2023-05-19T13:42:11.107Z,45.94
2023-05-19T13:44:13.982Z,45.87
2023-05-19T13:46:16.833Z,45.68
2023-05-19T13:48:21.679Z,45.71
2023-05-19T13:50:24.611Z,45.33
2023-05-19T13:52:58.339Z,45.48
2023-05-19T13:54:54.398Z,44.91
2023-05-19T13:56:57.386Z,45.13
2023-05-19T13:59:00.331Z,45.33
2023-05-19T14:01:03.343Z,45.19
2023-05-19T14:03:06.886Z,45.04
2023-05-19T14:05:10.055Z,44.64
2023-05-19T14:07:13.057Z,44.67
2023-05-19T14:09:17.567Z,44.39
2023-05-19T14:11:21.597Z,44.25
2023-05-19T14:13:33.464Z,44.48
2023-05-19T14:15:38.437Z,44.12
2023-05-19T14:17:41.639Z,44.23
2023-05-19T14:19:44.624Z,44.30
2023-05-19T14:21:47.401Z,44.37
2023-05-19T14:23:50.253Z,44.38
2023-05-19T14:25:54.561Z,44.12
2023-05-19T14:27:57.387Z,44.00
2023-05-19T14:30:00.180Z,43.96
2023-05-19T14:32:06.501Z,44.14
2023-05-19T14:34:09.514Z,43.91
2023-05-19T14:36:12.406Z,43.82
2023-05-19T14:38:15.263Z,43.60
2023-05-19T14:40:18.260Z,44.03
2023-05-19T14:42:22.456Z,43.80
2023-05-19T14:44:25.466Z,43.89
2023-05-19T14:46:28.515Z,43.81
2023-05-19T14:48:31.671Z,43.79
2023-05-19T14:50:34.831Z,43.79
2023-05-19T14:52:39.065Z,43.33
2023-05-19T14:54:42.057Z,43.43
2023-05-19T14:56:45.358Z,43.51
2023-05-19T14:58:51.762Z,43.68
2023-05-19T15:00:54.846Z,43.33
2023-05-19T15:02:57.704Z,43.38
2023-05-19T15:05:00.935Z,43.22
2023-05-19T15:09:10.716Z,43.06
2023-05-19T15:11:13.572Z,43.05
2023-05-19T15:13:18.728Z,42.84
2023-05-19T15:15:22.990Z,43.12
2023-05-19T15:17:25.924Z,43.07
2023-05-19T15:19:28.837Z,42.80
2023-05-19T15:21:31.861Z,42.82
2023-05-19T15:23:34.726Z,42.89
2023-05-19T15:25:38.363Z,42.99
2023-05-19T15:27:41.322Z,43.13
2023-05-19T15:29:44.129Z,42.96
2023-05-19T15:31:51.131Z,43.24
2023-05-19T15:33:53.963Z,43.27
2023-05-19T15:35:58.241Z,43.41
2023-05-19T15:38:06.059Z,43.47
2023-05-19T15:40:10.151Z,43.20
2023-05-19T15:42:12.959Z,43.41
2023-05-19T15:44:15.704Z,43.57
2023-05-19T15:46:19.882Z,43.46
2023-05-19T15:48:24.377Z,43.64
2023-05-19T15:50:27.317Z,43.64
2023-05-19T15:52:30.192Z,43.65
2023-05-19T15:54:33.110Z,43.79
2023-05-19T15:56:35.856Z,43.91
2023-05-19T15:58:38.739Z,43.67
2023-05-19T16:00:41.614Z,43.84
2023-05-19T16:02:44.591Z,44.17
2023-05-19T16:04:49.168Z,44.21
2023-05-19T16:06:52.008Z,44.35
2023-05-19T16:08:54.804Z,44.27
2023-05-19T16:10:57.737Z,44.32
2023-05-19T16:13:00.679Z,44.59
2023-05-19T16:15:03.587Z,44.69
2023-05-19T16:17:11.423Z,44.76
2023-05-19T16:19:14.329Z,44.73
2023-05-19T16:21:18.589Z,44.76
2023-05-19T16:23:21.731Z,44.80
2023-05-19T16:25:24.968Z,44.96
2023-05-19T16:27:27.993Z,45.06
2023-05-19T16:29:30.890Z,45.00
2023-05-19T16:31:33.755Z,45.06
2023-05-19T16:33:36.624Z,45.12
2023-05-19T16:35:40.015Z,45.10
2023-05-19T16:37:44.433Z,44.90
2023-05-19T16:39:48.284Z,44.96
2023-05-19T16:41:51.139Z,45.29
2023-05-19T16:43:54.019Z,45.13
2023-05-19T16:45:57.045Z,45.14
2023-05-19T16:48:00.081Z,45.09
2023-05-19T16:50:03.415Z,45.21
2023-05-19T16:52:06.235Z,45.20
2023-05-19T16:54:10.460Z,45.54
2023-05-19T16:56:13.238Z,45.35
2023-05-19T16:58:16.023Z,45.42
2023-05-19T17:00:19.353Z,45.31
2023-05-19T17:02:22.415Z,45.45
2023-05-19T17:04:25.567Z,45.56
2023-05-19T17:06:28.563Z,45.73
2023-05-19T17:08:31.327Z,45.75
2023-05-19T17:10:36.007Z,45.83
2023-05-19T17:12:39.107Z,45.74
2023-05-19T17:14:43.419Z,45.91
2023-05-19T17:16:46.546Z,45.79
2023-05-19T17:18:49.413Z,45.71
2023-05-19T17:20:52.257Z,46.00
2023-05-19T17:22:55.278Z,46.00
2023-05-19T17:24:58.485Z,46.12
2023-05-19T17:27:02.691Z,46.07
2023-05-19T17:29:05.913Z,45.93
2023-05-19T17:31:12.291Z,46.00
2023-05-19T17:33:15.513Z,45.96
2023-05-19T17:35:18.616Z,46.02
2023-05-19T17:37:23.511Z,45.77
2023-05-19T17:39:26.306Z,46.18
2023-05-19T17:41:29.111Z,46.10
2023-05-19T17:43:33.330Z,46.23
2023-05-19T17:45:36.190Z,46.23
2023-05-19T17:47:39.314Z,46.18
2023-05-19T17:49:42.521Z,46.00
2023-05-19T17:51:45.906Z,45.97
2023-05-19T17:53:49.374Z,46.09
2023-05-19T17:55:54.268Z,46.02
2023-05-19T17:57:57.767Z,46.12
2023-05-19T18:00:03.725Z,46.07
2023-05-19T18:02:07.433Z,46.17
2023-05-19T18:04:11.787Z,46.14
2023-05-19T18:06:17.286Z,46.21
2023-05-19T18:08:20.768Z,46.19
2023-05-19T18:10:26.823Z,46.18
2023-05-19T18:12:29.822Z,46.28
2023-05-19T18:14:32.775Z,46.32
2023-05-19T18:16:37.142Z,46.21
2023-05-19T18:18:43.347Z,46.37
2023-05-19T18:20:46.653Z,46.13
2023-05-19T18:22:49.546Z,46.26
2023-05-19T18:24:52.872Z,46.50
2023-05-19T18:26:55.813Z,46.70
2023-05-19T18:29:02.523Z,46.55
2023-05-19T18:31:07.528Z,46.52
2023-05-19T18:33:12.025Z,46.74
2023-05-19T18:35:16.605Z,46.75
2023-05-19T18:37:19.499Z,46.89
2023-05-19T18:39:23.782Z,46.80
2023-05-19T18:41:27.141Z,46.94
2023-05-19T18:43:32.432Z,47.02
2023-05-19T18:45:35.577Z,47.05
2023-05-19T18:47:38.468Z,47.14
2023-05-19T18:49:43.125Z,47.09
2023-05-19T18:51:48.456Z,47.13
2023-05-19T18:53:51.287Z,47.23
2023-05-19T18:55:54.066Z,47.42
2023-05-19T18:57:56.968Z,47.41
2023-05-19T19:00:01.987Z,47.42
2023-05-19T19:02:04.879Z,47.35
2023-05-19T19:04:07.849Z,47.46
2023-05-19T19:06:12.078Z,47.67
2023-05-19T19:08:14.878Z,47.55
2023-05-19T19:10:19.250Z,47.53
2023-05-19T19:12:22.123Z,47.67
2023-05-19T19:14:25.019Z,47.70
2023-05-19T19:16:28.133Z,47.79
2023-05-19T19:18:31.111Z,47.84
2023-05-19T19:20:34.250Z,47.80
2023-05-19T19:22:38.701Z,47.81
2023-05-19T19:24:43.015Z,47.74
2023-05-19T19:26:46.077Z,47.78
2023-05-19T19:28:48.957Z,47.90
2023-05-19T19:30:51.834Z,47.63
2023-05-19T19:32:56.844Z,47.78
2023-05-19T19:34:59.949Z,47.90
2023-05-19T19:37:02.838Z,47.80
2023-05-19T19:39:07.162Z,47.57
2023-05-19T19:41:10.238Z,47.81
2023-05-19T19:43:15.368Z,48.09
2023-05-19T19:45:19.516Z,47.99
2023-05-19T19:47:22.809Z,48.13
2023-05-19T19:49:26.024Z,48.30
2023-05-19T19:51:28.955Z,48.40
2023-05-19T19:53:33.032Z,48.43
2023-05-19T19:55:37.166Z,48.64
2023-05-19T19:57:39.949Z,48.46
2023-05-19T19:59:42.989Z,48.53
2023-05-19T20:01:46.001Z,48.70
2023-05-19T20:03:49.012Z,48.66
2023-05-19T20:05:52.174Z,48.70
2023-05-19T20:07:54.977Z,48.72
2023-05-19T20:09:57.798Z,48.88
2023-05-19T20:12:01.991Z,49.02
2023-05-19T20:14:05.139Z,48.99
2023-05-19T20:16:07.958Z,49.11
2023-05-19T20:18:10.889Z,49.24
2023-05-19T20:20:14.602Z,49.22
2023-05-19T20:22:17.370Z,49.19
2023-05-19T20:24:20.485Z,49.17
2023-05-19T20:26:23.570Z,49.30
2023-05-19T20:28:27.754Z,49.31
2023-05-19T20:30:30.829Z,49.42
2023-05-19T20:32:33.743Z,49.38
2023-05-19T20:34:36.652Z,49.25
2023-05-19T20:36:39.700Z,49.40
2023-05-19T20:38:42.788Z,49.21
2023-05-19T20:40:45.919Z,49.57
2023-05-19T20:42:48.911Z,49.74
2023-05-19T20:44:53.128Z,49.88
2023-05-19T20:46:56.507Z,49.71
2023-05-19T20:48:59.659Z,49.96
2023-05-19T20:51:02.620Z,49.84
2023-05-19T20:53:07.288Z,49.93
2023-05-19T20:55:10.524Z,49.80
2023-05-19T20:57:13.705Z,49.71
2023-05-19T20:59:16.602Z,49.87
2023-05-19T21:01:21.156Z,50.21
2023-05-19T21:03:24.591Z,50.22
2023-05-19T21:05:27.402Z,50.25
2023-05-19T21:07:30.322Z,50.16
2023-05-19T21:09:33.074Z,50.27
2023-05-19T21:11:35.934Z,50.46
2023-05-19T21:13:39.647Z,50.35
2023-05-19T21:15:42.716Z,50.48
2023-05-19T21:17:49.053Z,50.46
2023-05-19T21:19:56.516Z,50.59
2023-05-19T21:21:59.310Z,50.74
2023-05-19T21:24:02.137Z,50.71
2023-05-19T21:26:05.952Z,50.58
2023-05-19T21:28:09.832Z,50.59
2023-05-19T21:30:13.881Z,50.39
2023-05-19T21:32:16.618Z,50.46
2023-05-19T21:34:20.776Z,50.81
2023-05-19T21:36:23.522Z,50.54
2023-05-19T21:38:26.523Z,50.54
2023-05-19T21:40:29.410Z,50.82
2023-05-19T21:42:32.181Z,50.88
2023-05-19T21:44:35.067Z,50.78
2023-05-19T21:46:38.021Z,50.83
2023-05-19T21:48:41.009Z,50.79
2023-05-19T21:50:45.508Z,50.92
2023-05-19T21:52:48.503Z,51.09
2023-05-19T21:54:52.001Z,50.96
2023-05-19T21:56:55.125Z,51.18
2023-05-19T21:58:58.060Z,51.32
2023-05-19T22:01:01.518Z,51.18
2023-05-19T22:03:04.645Z,51.25
2023-05-19T22:05:08.337Z,51.37
2023-05-19T22:07:12.613Z,51.59
2023-05-19T22:09:15.634Z,51.48
2023-05-19T22:11:18.906Z,51.62
2023-05-19T22:13:22.192Z,51.67
2023-05-19T22:15:27.389Z,51.60
2023-05-19T22:17:30.420Z,51.78
2023-05-19T22:19:33.441Z,51.53
2023-05-19T22:21:36.742Z,51.57
2023-05-19T22:23:41.147Z,51.46
2023-05-19T22:25:44.029Z,51.69
2023-05-19T22:27:47.127Z,51.87
2023-05-19T22:29:52.330Z,51.97
2023-05-19T22:31:55.665Z,51.84
2023-05-19T22:33:58.894Z,51.91
2023-05-19T22:36:02.052Z,51.94
2023-05-19T22:38:04.970Z,52.02
2023-05-19T22:40:10.181Z,52.06
2023-05-19T22:42:13.089Z,51.96
2023-05-19T22:44:16.305Z,51.94
2023-05-19T22:46:19.434Z,51.88
2023-05-19T22:48:22.290Z,51.99
2023-05-19T22:50:25.220Z,52.11
2023-05-19T22:52:28.316Z,52.21
2023-05-19T22:54:31.453Z,52.20
2023-05-19T22:56:35.916Z,52.23
2023-05-19T22:58:39.100Z,52.49
2023-05-19T23:00:41.809Z,52.37
2023-05-19T23:02:44.991Z,52.27
2023-05-19T23:04:48.013Z,52.61
2023-05-19T23:06:51.265Z,52.57
2023-05-19T23:09:00.729Z,52.75
2023-05-19T23:11:03.709Z,52.72
2023-05-19T23:13:08.176Z,52.69
2023-05-19T23:15:12.297Z,52.84
2023-05-19T23:17:15.294Z,52.81
2023-05-19T23:19:20.273Z,52.75
2023-05-19T23:21:23.713Z,52.52
2023-05-19T23:23:27.693Z,52.61
2023-05-19T23:25:32.463Z,52.63
2023-05-19T23:27:36.223Z,52.60
2023-05-19T23:29:40.652Z,52.81
2023-05-19T23:31:43.620Z,52.87
2023-05-19T23:33:46.600Z,52.89
2023-05-19T23:35:49.921Z,52.87
2023-05-19T23:37:54.417Z,52.74
2023-05-19T23:39:57.422Z,52.74
2023-05-19T23:42:00.298Z,52.86
2023-05-19T23:44:03.143Z,52.90
2023-05-19T23:46:07.468Z,53.03
2023-05-19T23:48:11.168Z,52.92
2023-05-19T23:50:14.093Z,53.07
2023-05-19T23:52:17.192Z,52.85
2023-05-19T23:54:20.098Z,52.98
2023-05-19T23:56:23.156Z,53.03
2023-05-19T23:58:26.122Z,53.05
